DLH5TP EDDF-EDDL
Flight info
| Callsign | DLH5TP |
|---|---|
| Flight time | 0h 49m |
| Altitude | 24000 |
| Route | MARUN3W/25C MARUN Y152 ARPEG Z850 ADEMI T854 DOMUX DOMUX1A |
| Aircraft | A320/M-SDE2E3FGIJ1LORWXYZ/HB1 |
Departure
| Time | 2026-05-04 18:51 |
|---|---|
| Airport | Frankfurt Main Airport (EDDF) |
Arrival
| Time | 2026-05-04 19:40 |
|---|---|
| Airport | Düsseldorf Airport (EDDL) |
| Time | Latitude | Longitude | Altitude | Speed | Heading |
|---|---|---|---|---|---|
| 2026-05-04 18:24 | 50.04655 | 8.56810 | 356 ft | 0 kts | 295° |
| 2026-05-04 18:41 | 50.04655 | 8.56811 | 356 ft | 2 kts | 295° |
| 2026-05-04 18:41 | 50.04646 | 8.56847 | 358 ft | 4 kts | 280° |
| 2026-05-04 18:41 | 50.04645 | 8.56888 | 363 ft | 4 kts | 258° |
| 2026-05-04 18:42 | 50.04654 | 8.56926 | 361 ft | 4 kts | 229° |
| 2026-05-04 18:42 | 50.04672 | 8.56948 | 361 ft | 4 kts | 207° |
| 2026-05-04 18:42 | 50.04696 | 8.56967 | 362 ft | 4 kts | 206° |
| 2026-05-04 18:42 | 50.04720 | 8.56985 | 364 ft | 4 kts | 204° |
| 2026-05-04 18:43 | 50.04745 | 8.57002 | 363 ft | 4 kts | 203° |
| 2026-05-04 18:43 | 50.04770 | 8.57018 | 360 ft | 4 kts | 203° |
| 2026-05-04 18:43 | 50.04784 | 8.57028 | 358 ft | 0 kts | 204° |
| 2026-05-04 18:46 | 50.04745 | 8.57001 | 363 ft | 11 kts | 204° |
| 2026-05-04 18:46 | 50.04676 | 8.56952 | 363 ft | 10 kts | 205° |
| 2026-05-04 18:47 | 50.04611 | 8.56911 | 356 ft | 11 kts | 194° |
| 2026-05-04 18:47 | 50.04543 | 8.56886 | 359 ft | 9 kts | 193° |
| 2026-05-04 18:47 | 50.04486 | 8.56865 | 359 ft | 10 kts | 193° |
| 2026-05-04 18:47 | 50.04401 | 8.56841 | 362 ft | 14 kts | 190° |
| 2026-05-04 18:48 | 50.04310 | 8.56818 | 360 ft | 11 kts | 182° |
| 2026-05-04 18:48 | 50.04277 | 8.56897 | 360 ft | 10 kts | 80° |
| 2026-05-04 18:48 | 50.04307 | 8.57031 | 363 ft | 16 kts | 70° |
| 2026-05-04 18:48 | 50.04349 | 8.57205 | 363 ft | 18 kts | 69° |
| 2026-05-04 18:49 | 50.04398 | 8.57407 | 361 ft | 21 kts | 69° |
| 2026-05-04 18:49 | 50.04450 | 8.57629 | 366 ft | 22 kts | 70° |
| 2026-05-04 18:49 | 50.04505 | 8.57863 | 366 ft | 24 kts | 70° |
| 2026-05-04 18:49 | 50.04533 | 8.58044 | 364 ft | 12 kts | 118° |
| 2026-05-04 18:50 | 50.04469 | 8.58100 | 368 ft | 10 kts | 157° |
| 2026-05-04 18:50 | 50.04424 | 8.58127 | 371 ft | 0 kts | 161° |
| 2026-05-04 18:50 | 50.04389 | 8.58122 | 367 ft | 12 kts | 205° |
| 2026-05-04 18:50 | 50.04320 | 8.57887 | 368 ft | 49 kts | 250° |
| 2026-05-04 18:51 | 50.04112 | 8.57017 | 363 ft | 119 kts | 249° |
| 2026-05-04 18:51 | 50.03760 | 8.55535 | 422 ft | 165 kts | 252° |
| 2026-05-04 18:51 | 50.03376 | 8.53874 | 1175 ft | 162 kts | 252° |
| 2026-05-04 18:51 | 50.03009 | 8.52215 | 1890 ft | 166 kts | 253° |
| 2026-05-04 18:52 | 50.02563 | 8.50428 | 2288 ft | 189 kts | 242° |
| 2026-05-04 18:52 | 50.01609 | 8.48849 | 2607 ft | 218 kts | 214° |
| 2026-05-04 18:52 | 50.00109 | 8.47960 | 3027 ft | 246 kts | 189° |
| 2026-05-04 18:52 | 49.98352 | 8.47568 | 3740 ft | 261 kts | 188° |
| 2026-05-04 18:53 | 49.96544 | 8.47173 | 4791 ft | 263 kts | 189° |
| 2026-05-04 18:53 | 49.94778 | 8.46516 | 5811 ft | 264 kts | 195° |
| 2026-05-04 18:53 | 49.93084 | 8.45752 | 7171 ft | 248 kts | 199° |
| 2026-05-04 18:53 | 49.91623 | 8.44385 | 8184 ft | 249 kts | 226° |
| 2026-05-04 18:54 | 49.90756 | 8.42060 | 9125 ft | 254 kts | 253° |
| 2026-05-04 18:54 | 49.90708 | 8.39307 | 10018 ft | 264 kts | 279° |
| 2026-05-04 18:54 | 49.91590 | 8.36708 | 10526 ft | 287 kts | 312° |
| 2026-05-04 18:54 | 49.93325 | 8.34977 | 11014 ft | 309 kts | 332° |
| 2026-05-04 18:55 | 49.95343 | 8.33584 | 11524 ft | 325 kts | 334° |
| 2026-05-04 18:55 | 49.99726 | 8.30862 | 12550 ft | 350 kts | 335° |
| 2026-05-04 18:55 | 50.02047 | 8.29604 | 13073 ft | 357 kts | 343° |
| 2026-05-04 18:56 | 50.04518 | 8.29031 | 13609 ft | 364 kts | 355° |
| 2026-05-04 18:56 | 50.06242 | 8.29085 | 14062 ft | 369 kts | 3° |
| 2026-05-04 18:56 | 50.08745 | 8.29819 | 14732 ft | 375 kts | 15° |
| 2026-05-04 18:56 | 50.11233 | 8.31089 | 15419 ft | 379 kts | 17° |
| 2026-05-04 18:57 | 50.13746 | 8.32400 | 16096 ft | 383 kts | 17° |
| 2026-05-04 18:57 | 50.16278 | 8.33739 | 16772 ft | 387 kts | 18° |
| 2026-05-04 18:57 | 50.18835 | 8.35092 | 17451 ft | 390 kts | 18° |
| 2026-05-04 18:57 | 50.21422 | 8.36458 | 18128 ft | 394 kts | 18° |
| 2026-05-04 18:58 | 50.24030 | 8.37834 | 18723 ft | 398 kts | 18° |
| 2026-05-04 18:58 | 50.26666 | 8.39228 | 19306 ft | 402 kts | 18° |
| 2026-05-04 18:58 | 50.29323 | 8.40629 | 19891 ft | 405 kts | 18° |
| 2026-05-04 18:58 | 50.32006 | 8.42060 | 20469 ft | 409 kts | 18° |
| 2026-05-04 18:59 | 50.34703 | 8.43522 | 21061 ft | 412 kts | 18° |
| 2026-05-04 18:59 | 50.37424 | 8.45013 | 21658 ft | 416 kts | 18° |
| 2026-05-04 18:59 | 50.40156 | 8.46520 | 22186 ft | 418 kts | 18° |
| 2026-05-04 18:59 | 50.42908 | 8.48039 | 22719 ft | 420 kts | 18° |
| 2026-05-04 19:00 | 50.45671 | 8.49558 | 23258 ft | 420 kts | 18° |
| 2026-05-04 19:00 | 50.48438 | 8.51061 | 23755 ft | 421 kts | 17° |
| 2026-05-04 19:00 | 50.51229 | 8.52475 | 23934 ft | 422 kts | 15° |
| 2026-05-04 19:00 | 50.54042 | 8.53815 | 23983 ft | 422 kts | 15° |
| 2026-05-04 19:01 | 50.56849 | 8.55114 | 23990 ft | 418 kts | 14° |
| 2026-05-04 19:01 | 50.59589 | 8.56379 | 23978 ft | 401 kts | 14° |
| 2026-05-04 19:01 | 50.62210 | 8.57603 | 23981 ft | 387 kts | 14° |
| 2026-05-04 19:01 | 50.64771 | 8.58818 | 23980 ft | 382 kts | 14° |
| 2026-05-04 19:02 | 50.67309 | 8.60038 | 23980 ft | 381 kts | 15° |
| 2026-05-04 19:02 | 50.69847 | 8.61260 | 23978 ft | 381 kts | 15° |
| 2026-05-04 19:02 | 50.72381 | 8.62476 | 23980 ft | 381 kts | 15° |
| 2026-05-04 19:02 | 50.74924 | 8.63654 | 23975 ft | 380 kts | 10° |
| 2026-05-04 19:03 | 50.77525 | 8.64182 | 23979 ft | 376 kts | 358° |
| 2026-05-04 19:03 | 50.80114 | 8.63861 | 23979 ft | 370 kts | 345° |
| 2026-05-04 19:03 | 50.82514 | 8.62783 | 23975 ft | 349 kts | 333° |
| 2026-05-04 19:03 | 50.84617 | 8.61109 | 23978 ft | 329 kts | 322° |
| 2026-05-04 19:04 | 50.86404 | 8.58971 | 23979 ft | 318 kts | 312° |
| 2026-05-04 19:04 | 50.87906 | 8.56438 | 23979 ft | 314 kts | 305° |
| 2026-05-04 19:04 | 50.89312 | 8.53801 | 23982 ft | 314 kts | 306° |
| 2026-05-04 19:04 | 50.90721 | 8.51165 | 23982 ft | 313 kts | 306° |
| 2026-05-04 19:05 | 50.92132 | 8.48528 | 23998 ft | 314 kts | 306° |
| 2026-05-04 19:05 | 50.93544 | 8.45884 | 23985 ft | 315 kts | 306° |
| 2026-05-04 19:05 | 50.94962 | 8.43233 | 23990 ft | 315 kts | 307° |
| 2026-05-04 19:05 | 50.96673 | 8.41030 | 23986 ft | 323 kts | 330° |
| 2026-05-04 19:06 | 50.98818 | 8.40050 | 23986 ft | 331 kts | 354° |
| 2026-05-04 19:06 | 51.01159 | 8.40193 | 23984 ft | 334 kts | 3° |
| 2026-05-04 19:06 | 51.03474 | 8.40582 | 23988 ft | 335 kts | 4° |
| 2026-05-04 19:06 | 51.05784 | 8.41013 | 23986 ft | 335 kts | 4° |
| 2026-05-04 19:07 | 51.08096 | 8.41463 | 23978 ft | 335 kts | 4° |
| 2026-05-04 19:07 | 51.10413 | 8.41917 | 23978 ft | 335 kts | 4° |
| 2026-05-04 19:07 | 51.12725 | 8.42368 | 23978 ft | 335 kts | 4° |
| 2026-05-04 19:07 | 51.15044 | 8.42823 | 23978 ft | 336 kts | 4° |
| 2026-05-04 19:08 | 51.17359 | 8.43278 | 23986 ft | 336 kts | 4° |
| 2026-05-04 19:08 | 51.19682 | 8.43734 | 23987 ft | 336 kts | 4° |
| 2026-05-04 19:08 | 51.21999 | 8.44190 | 23986 ft | 336 kts | 4° |
| 2026-05-04 19:08 | 51.24319 | 8.44648 | 23982 ft | 336 kts | 4° |
| 2026-05-04 19:09 | 51.26607 | 8.45100 | 23984 ft | 336 kts | 4° |
| 2026-05-04 19:09 | 51.28925 | 8.45560 | 23997 ft | 336 kts | 4° |
| 2026-05-04 19:09 | 51.31246 | 8.46025 | 23999 ft | 336 kts | 4° |
| 2026-05-04 19:09 | 51.33560 | 8.46489 | 24004 ft | 335 kts | 4° |
| 2026-05-04 19:10 | 51.35875 | 8.46954 | 24002 ft | 335 kts | 4° |
| 2026-05-04 19:10 | 51.38183 | 8.47417 | 24004 ft | 334 kts | 4° |
| 2026-05-04 19:10 | 51.40494 | 8.47880 | 23971 ft | 335 kts | 4° |
| 2026-05-04 19:10 | 51.42801 | 8.48342 | 23730 ft | 333 kts | 4° |
| 2026-05-04 19:11 | 51.45095 | 8.48797 | 23494 ft | 331 kts | 4° |
| 2026-05-04 19:11 | 51.47372 | 8.49244 | 23221 ft | 329 kts | 4° |
| 2026-05-04 19:11 | 51.49640 | 8.49685 | 22949 ft | 328 kts | 4° |
| 2026-05-04 19:11 | 51.51906 | 8.50122 | 22685 ft | 327 kts | 4° |
| 2026-05-04 19:12 | 51.54163 | 8.50548 | 22419 ft | 326 kts | 4° |
| 2026-05-04 19:12 | 51.58514 | 8.49825 | 21890 ft | 312 kts | 328° |
| 2026-05-04 19:12 | 51.60390 | 8.48093 | 21629 ft | 310 kts | 324° |
| 2026-05-04 19:13 | 51.62219 | 8.46263 | 21373 ft | 309 kts | 324° |
| 2026-05-04 19:13 | 51.64040 | 8.44420 | 21115 ft | 309 kts | 324° |
| 2026-05-04 19:13 | 51.65830 | 8.42602 | 20844 ft | 308 kts | 324° |
| 2026-05-04 19:13 | 51.67636 | 8.40762 | 20593 ft | 307 kts | 324° |
| 2026-05-04 19:14 | 51.69439 | 8.38920 | 20349 ft | 306 kts | 324° |
| 2026-05-04 19:14 | 51.71234 | 8.37082 | 20092 ft | 306 kts | 324° |
| 2026-05-04 19:14 | 51.73027 | 8.35242 | 19843 ft | 305 kts | 324° |
| 2026-05-04 19:14 | 51.74811 | 8.33406 | 19603 ft | 304 kts | 324° |
| 2026-05-04 19:15 | 51.76592 | 8.31558 | 19365 ft | 304 kts | 324° |
| 2026-05-04 19:15 | 51.78363 | 8.29702 | 19128 ft | 304 kts | 324° |
| 2026-05-04 19:15 | 51.80132 | 8.27841 | 18896 ft | 303 kts | 323° |
| 2026-05-04 19:15 | 51.81895 | 8.25982 | 18657 ft | 303 kts | 324° |
| 2026-05-04 19:16 | 51.83654 | 8.24111 | 18428 ft | 302 kts | 321° |
| 2026-05-04 19:16 | 51.85121 | 8.21776 | 18178 ft | 294 kts | 300° |
| 2026-05-04 19:16 | 51.85942 | 8.18818 | 17910 ft | 286 kts | 278° |
| 2026-05-04 19:16 | 51.86041 | 8.15670 | 17642 ft | 279 kts | 258° |
| 2026-05-04 19:17 | 51.85462 | 8.12728 | 17369 ft | 273 kts | 238° |
| 2026-05-04 19:17 | 51.84315 | 8.10333 | 17101 ft | 269 kts | 220° |
| 2026-05-04 19:17 | 51.82887 | 8.08382 | 16852 ft | 269 kts | 218° |
| 2026-05-04 19:17 | 51.81451 | 8.06443 | 16594 ft | 268 kts | 219° |
| 2026-05-04 19:18 | 51.80019 | 8.04510 | 16333 ft | 268 kts | 219° |
| 2026-05-04 19:18 | 51.78592 | 8.02589 | 16082 ft | 267 kts | 219° |
| 2026-05-04 19:18 | 51.77172 | 8.00672 | 15829 ft | 266 kts | 218° |
| 2026-05-04 19:18 | 51.75759 | 7.98757 | 15579 ft | 264 kts | 219° |
| 2026-05-04 19:19 | 51.74351 | 7.96854 | 15329 ft | 263 kts | 218° |
| 2026-05-04 19:19 | 51.72950 | 7.94964 | 15086 ft | 262 kts | 218° |
| 2026-05-04 19:19 | 51.71550 | 7.93077 | 14842 ft | 262 kts | 218° |
| 2026-05-04 19:19 | 51.70154 | 7.91202 | 14598 ft | 261 kts | 218° |
| 2026-05-04 19:20 | 51.68758 | 7.89331 | 14358 ft | 262 kts | 218° |
| 2026-05-04 19:20 | 51.67363 | 7.87462 | 14115 ft | 260 kts | 218° |
| 2026-05-04 19:20 | 51.65975 | 7.85602 | 13985 ft | 259 kts | 218° |
| 2026-05-04 19:20 | 51.64592 | 7.83752 | 13968 ft | 259 kts | 218° |
| 2026-05-04 19:21 | 51.63204 | 7.81897 | 13983 ft | 259 kts | 218° |
| 2026-05-04 19:21 | 51.61818 | 7.80043 | 13980 ft | 259 kts | 218° |
| 2026-05-04 19:21 | 51.60429 | 7.78187 | 13980 ft | 259 kts | 218° |
| 2026-05-04 19:21 | 51.59044 | 7.76334 | 13981 ft | 259 kts | 218° |
| 2026-05-04 19:22 | 51.57655 | 7.74479 | 13980 ft | 259 kts | 218° |
| 2026-05-04 19:22 | 51.56262 | 7.72625 | 13826 ft | 261 kts | 218° |
| 2026-05-04 19:22 | 51.54868 | 7.70772 | 13578 ft | 259 kts | 218° |
| 2026-05-04 19:22 | 51.53482 | 7.68926 | 13313 ft | 258 kts | 218° |
| 2026-05-04 19:23 | 51.52107 | 7.67093 | 13048 ft | 257 kts | 218° |
| 2026-05-04 19:23 | 51.50734 | 7.65269 | 12785 ft | 255 kts | 218° |
| 2026-05-04 19:23 | 51.49371 | 7.63457 | 12525 ft | 254 kts | 218° |
| 2026-05-04 19:23 | 51.48011 | 7.61652 | 12269 ft | 253 kts | 218° |
| 2026-05-04 19:24 | 51.46661 | 7.59857 | 12013 ft | 252 kts | 218° |
| 2026-05-04 19:24 | 51.45314 | 7.58064 | 11755 ft | 251 kts | 218° |
| 2026-05-04 19:24 | 51.43975 | 7.56284 | 11503 ft | 250 kts | 218° |
| 2026-05-04 19:24 | 51.42648 | 7.54493 | 11253 ft | 249 kts | 222° |
| 2026-05-04 19:25 | 51.41492 | 7.52437 | 11003 ft | 249 kts | 232° |
| 2026-05-04 19:25 | 51.40538 | 7.50170 | 10762 ft | 248 kts | 235° |
| 2026-05-04 19:25 | 51.39589 | 7.47868 | 10524 ft | 247 kts | 235° |
| 2026-05-04 19:25 | 51.38639 | 7.45575 | 10285 ft | 246 kts | 234° |
| 2026-05-04 19:26 | 51.37691 | 7.43300 | 10048 ft | 245 kts | 234° |
| 2026-05-04 19:26 | 51.36744 | 7.41032 | 9804 ft | 244 kts | 234° |
| 2026-05-04 19:26 | 51.35804 | 7.38779 | 9536 ft | 243 kts | 234° |
| 2026-05-04 19:26 | 51.34868 | 7.36535 | 9271 ft | 241 kts | 235° |
| 2026-05-04 19:27 | 51.33941 | 7.34311 | 9010 ft | 239 kts | 234° |
| 2026-05-04 19:27 | 51.33025 | 7.32121 | 8745 ft | 235 kts | 234° |
| 2026-05-04 19:27 | 51.32122 | 7.29964 | 8486 ft | 232 kts | 234° |
| 2026-05-04 19:27 | 51.31226 | 7.27820 | 8229 ft | 232 kts | 234° |
| 2026-05-04 19:28 | 51.30334 | 7.25683 | 7969 ft | 231 kts | 234° |
| 2026-05-04 19:28 | 51.29444 | 7.23562 | 7722 ft | 230 kts | 234° |
| 2026-05-04 19:28 | 51.28560 | 7.21458 | 7463 ft | 229 kts | 234° |
| 2026-05-04 19:28 | 51.27671 | 7.19341 | 7214 ft | 228 kts | 234° |
| 2026-05-04 19:29 | 51.26794 | 7.17243 | 7029 ft | 227 kts | 236° |
| 2026-05-04 19:29 | 51.26234 | 7.14879 | 6993 ft | 234 kts | 261° |
| 2026-05-04 19:29 | 51.26437 | 7.12282 | 6981 ft | 243 kts | 289° |
| 2026-05-04 19:29 | 51.27433 | 7.10088 | 6981 ft | 250 kts | 317° |
| 2026-05-04 19:30 | 51.28806 | 7.08427 | 6980 ft | 252 kts | 323° |
| 2026-05-04 19:30 | 51.30452 | 7.07370 | 6974 ft | 256 kts | 352° |
| 2026-05-04 19:30 | 51.32210 | 7.07675 | 6976 ft | 257 kts | 22° |
| 2026-05-04 19:30 | 51.33669 | 7.09274 | 6984 ft | 256 kts | 51° |
| 2026-05-04 19:31 | 51.34742 | 7.11505 | 6983 ft | 256 kts | 55° |
| 2026-05-04 19:31 | 51.35811 | 7.13779 | 6839 ft | 255 kts | 55° |
| 2026-05-04 19:31 | 51.36874 | 7.16038 | 6533 ft | 253 kts | 54° |
| 2026-05-04 19:31 | 51.37926 | 7.18277 | 6195 ft | 251 kts | 54° |
| 2026-05-04 19:32 | 51.38972 | 7.20514 | 5938 ft | 253 kts | 54° |
| 2026-05-04 19:32 | 51.40053 | 7.22801 | 5649 ft | 254 kts | 50° |
| 2026-05-04 19:32 | 51.41419 | 7.24463 | 5310 ft | 251 kts | 21° |
| 2026-05-04 19:32 | 51.43103 | 7.24887 | 4978 ft | 244 kts | 349° |
| 2026-05-04 19:33 | 51.44626 | 7.23889 | 4634 ft | 235 kts | 316° |
| 2026-05-04 19:33 | 51.45544 | 7.21823 | 4279 ft | 227 kts | 284° |
| 2026-05-04 19:33 | 51.45699 | 7.19349 | 4034 ft | 223 kts | 266° |
| 2026-05-04 19:33 | 51.45614 | 7.16831 | 4010 ft | 229 kts | 263° |
| 2026-05-04 19:34 | 51.45503 | 7.14277 | 4013 ft | 230 kts | 264° |
| 2026-05-04 19:34 | 51.45358 | 7.11734 | 4013 ft | 229 kts | 257° |
| 2026-05-04 19:34 | 51.44732 | 7.09436 | 4010 ft | 226 kts | 232° |
| 2026-05-04 19:34 | 51.43797 | 7.07450 | 4006 ft | 217 kts | 231° |
| 2026-05-04 19:35 | 51.42920 | 7.05595 | 4006 ft | 201 kts | 232° |
| 2026-05-04 19:35 | 51.42114 | 7.03886 | 4028 ft | 183 kts | 231° |
| 2026-05-04 19:35 | 51.41367 | 7.02301 | 3889 ft | 175 kts | 231° |
| 2026-05-04 19:35 | 51.40638 | 7.00755 | 3684 ft | 173 kts | 231° |
| 2026-05-04 19:36 | 51.39911 | 6.99217 | 3465 ft | 173 kts | 231° |
| 2026-05-04 19:36 | 51.39184 | 6.97676 | 3242 ft | 174 kts | 231° |
| 2026-05-04 19:36 | 51.38453 | 6.96128 | 2997 ft | 175 kts | 231° |
| 2026-05-04 19:36 | 51.37722 | 6.94583 | 2775 ft | 174 kts | 231° |
| 2026-05-04 19:37 | 51.36993 | 6.93041 | 2541 ft | 173 kts | 231° |
| 2026-05-04 19:37 | 51.36274 | 6.91520 | 2308 ft | 170 kts | 231° |
| 2026-05-04 19:37 | 51.35567 | 6.90027 | 2084 ft | 167 kts | 230° |
| 2026-05-04 19:37 | 51.34904 | 6.88625 | 1868 ft | 148 kts | 231° |
| 2026-05-04 19:38 | 51.34308 | 6.87364 | 1644 ft | 138 kts | 230° |
| 2026-05-04 19:38 | 51.33741 | 6.86167 | 1435 ft | 133 kts | 229° |
| 2026-05-04 19:38 | 51.33184 | 6.84988 | 1255 ft | 132 kts | 230° |
| 2026-05-04 19:38 | 51.32637 | 6.83833 | 1084 ft | 133 kts | 229° |
| 2026-05-04 19:39 | 51.32078 | 6.82655 | 963 ft | 131 kts | 229° |
| 2026-05-04 19:39 | 51.31527 | 6.81458 | 760 ft | 134 kts | 227° |
| 2026-05-04 19:39 | 51.30957 | 6.80302 | 571 ft | 129 kts | 231° |
| 2026-05-04 19:39 | 51.30409 | 6.79144 | 421 ft | 131 kts | 232° |
| 2026-05-04 19:40 | 51.29858 | 6.77989 | 225 ft | 130 kts | 230° |
| 2026-05-04 19:40 | 51.29321 | 6.76866 | 116 ft | 116 kts | 231° |
| 2026-05-04 19:40 | 51.28987 | 6.76167 | 117 ft | 45 kts | 232° |
| 2026-05-04 19:40 | 51.28803 | 6.75808 | 117 ft | 39 kts | 223° |
| 2026-05-04 19:41 | 51.28613 | 6.75681 | 117 ft | 15 kts | 176° |
| 2026-05-04 19:41 | 51.28550 | 6.75696 | 115 ft | 3 kts | 164° |
| 2026-05-04 19:41 | 51.28535 | 6.75705 | 115 ft | 1 kts | 159° |
| 2026-05-04 19:43 | 51.28529 | 6.75708 | 117 ft | 3 kts | 158° |
| 2026-05-04 19:43 | 51.28509 | 6.75725 | 116 ft | 4 kts | 149° |
| 2026-05-04 19:44 | 51.28492 | 6.75743 | 118 ft | 4 kts | 146° |
| 2026-05-04 19:44 | 51.28473 | 6.75764 | 116 ft | 3 kts | 144° |
| 2026-05-04 19:44 | 51.28462 | 6.75777 | 116 ft | 0 kts | 143° |
| 2026-05-04 19:47 | 51.28462 | 6.75778 | 116 ft | 0 kts | 143° |
| 2026-05-04 19:47 | 51.28450 | 6.75792 | 115 ft | 4 kts | 143° |
| 2026-05-04 19:47 | 51.28446 | 6.75797 | 116 ft | 2 kts | 143° |
| 2026-05-04 19:47 | 51.28428 | 6.75818 | 118 ft | 4 kts | 143° |
| 2026-05-04 19:48 | 51.28399 | 6.75854 | 118 ft | 6 kts | 142° |
| 2026-05-04 19:48 | 51.28394 | 6.75859 | 118 ft | 0 kts | 142° |
| 2026-05-04 19:51 | 51.28388 | 6.75867 | 116 ft | 3 kts | 143° |
| 2026-05-04 19:52 | 51.28355 | 6.75906 | 116 ft | 8 kts | 143° |
| 2026-05-04 19:52 | 51.28302 | 6.75971 | 114 ft | 9 kts | 142° |
| 2026-05-04 19:52 | 51.28250 | 6.75986 | 118 ft | 7 kts | 194° |
| 2026-05-04 19:52 | 51.28213 | 6.75961 | 116 ft | 5 kts | 204° |
| 2026-05-04 19:53 | 51.28185 | 6.75941 | 119 ft | 3 kts | 204° |
| 2026-05-04 19:53 | 51.28164 | 6.75926 | 117 ft | 3 kts | 205° |
| 2026-05-04 19:53 | 51.28147 | 6.75913 | 118 ft | 1 kts | 205° |
| 2026-05-04 19:55 | 51.28139 | 6.75907 | 116 ft | 4 kts | 206° |
| 2026-05-04 19:55 | 51.28098 | 6.75874 | 116 ft | 8 kts | 206° |
| 2026-05-04 19:55 | 51.28050 | 6.75837 | 115 ft | 8 kts | 206° |
| 2026-05-04 19:55 | 51.28002 | 6.75821 | 116 ft | 7 kts | 184° |
| 2026-05-04 19:56 | 51.27961 | 6.75826 | 117 ft | 4 kts | 146° |
| 2026-05-04 19:56 | 51.27954 | 6.75872 | 118 ft | 5 kts | 92° |
| 2026-05-04 19:56 | 51.27953 | 6.75921 | 118 ft | 4 kts | 91° |
| 2026-05-04 19:56 | 51.27953 | 6.75928 | 118 ft | 0 kts | 91° |